sensor_id;sensor_type;location;lat;lon;timestamp;pressure;altitude;pressure_sealevel;temperature;humidity
74427;BME280;62859;53.906;27.430;2023-04-05T00:01:03;1011.6;;;3.8;61
74427;BME280;62859;53.906;27.430;2023-04-05T00:06:39;1011.6;;;3.8;61.1
74427;BME280;62859;53.906;27.430;2023-04-05T00:11:31;1011.6;;;3.8;61.1
74427;BME280;62859;53.906;27.430;2023-04-05T00:15:57;1011.6;;;3.8;61.1
74427;BME280;62859;53.906;27.430;2023-04-05T00:20:57;1011.5;;;3.8;61.4
74427;BME280;62859;53.906;27.430;2023-04-05T00:26:05;1011.6;;;3.8;61.9
74427;BME280;62859;53.906;27.430;2023-04-05T00:31:39;1011.6;;;3.8;61.6
74427;BME280;62859;53.906;27.430;2023-04-05T00:36:31;1011.5;;;3.8;61.8
74427;BME280;62859;53.906;27.430;2023-04-05T00:41:05;1011.4;;;3.8;61.6
74427;BME280;62859;53.906;27.430;2023-04-05T00:46:11;1011.4;;;3.7;61.5
74427;BME280;62859;53.906;27.430;2023-04-05T00:51:11;1011.3;;;3.7;61.7
74427;BME280;62859;53.906;27.430;2023-04-05T00:56:31;1011.3;;;3.7;61.7
74427;BME280;62859;53.906;27.430;2023-04-05T01:01:39;1011.3;;;3.7;61.6
74427;BME280;62859;53.906;27.430;2023-04-05T01:06:35;1011.2;;;3.8;62.2
74427;BME280;62859;53.906;27.430;2023-04-05T01:10:58;1011.2;;;3.7;62.2
74427;BME280;62859;53.906;27.430;2023-04-05T01:16:11;1011.1;;;3.7;62.1
74427;BME280;62859;53.906;27.430;2023-04-05T01:21:25;1011.1;;;3.7;62.4
74427;BME280;62859;53.906;27.430;2023-04-05T01:26:44;1011.2;;;3.7;62.2
74427;BME280;62859;53.906;27.430;2023-04-05T01:31:32;1011.1;;;3.7;62.2
74427;BME280;62859;53.906;27.430;2023-04-05T01:36:14;1011;;;3.7;62
74427;BME280;62859;53.906;27.430;2023-04-05T01:40:57;1011;;;3.7;62.2
74427;BME280;62859;53.906;27.430;2023-04-05T01:46:29;1011;;;3.7;62.3
74427;BME280;62859;53.906;27.430;2023-04-05T01:51:39;1011;;;3.8;62.7
74427;BME280;62859;53.906;27.430;2023-04-05T01:56:31;1010.8;;;3.7;62.4
74427;BME280;62859;53.906;27.430;2023-04-05T02:01:11;1010.8;;;3.7;62.6
74427;BME280;62859;53.906;27.430;2023-04-05T02:06:05;1011;;;3.7;62.4
74427;BME280;62859;53.906;27.430;2023-04-05T02:11:31;1011.1;;;3.7;62.8
74427;BME280;62859;53.906;27.430;2023-04-05T02:16:39;1011;;;3.7;62.8
74427;BME280;62859;53.906;27.430;2023-04-05T02:21:31;1010.9;;;3.6;62.9
74427;BME280;62859;53.906;27.430;2023-04-05T02:26:11;1010.9;;;3.6;62.7
74427;BME280;62859;53.906;27.430;2023-04-05T02:31:07;1010.9;;;3.6;62.6
74427;BME280;62859;53.906;27.430;2023-04-05T02:36:31;1011;;;3.7;63.2
74427;BME280;62859;53.906;27.430;2023-04-05T02:41:39;1011;;;3.6;63.3
74427;BME280;62859;53.906;27.430;2023-04-05T02:45:57;1011.1;;;3.6;63.2
74427;BME280;62859;53.906;27.430;2023-04-05T02:51:11;1011.1;;;3.6;63.2
74427;BME280;62859;53.906;27.430;2023-04-05T02:55:57;1011.1;;;3.6;62.9
74427;BME280;62859;53.906;27.430;2023-04-05T03:01:31;1011.2;;;3.7;62.8
74427;BME280;62859;53.906;27.430;2023-04-05T03:06:39;1011.2;;;3.7;62.9
74427;BME280;62859;53.906;27.430;2023-04-05T03:11:31;1011.2;;;3.6;62.8
74427;BME280;62859;53.906;27.430;2023-04-05T03:16:11;1011.2;;;3.6;62.4
74427;BME280;62859;53.906;27.430;2023-04-05T03:21:05;1011.2;;;3.7;62.8
74427;BME280;62859;53.906;27.430;2023-04-05T03:26:39;1011.2;;;3.7;63
74427;BME280;62859;53.906;27.430;2023-04-05T03:31:39;1011.2;;;3.6;62.7
74427;BME280;62859;53.906;27.430;2023-04-05T03:36:05;1011.2;;;3.6;62.8
74427;BME280;62859;53.906;27.430;2023-04-05T03:41:11;1011.2;;;3.6;62.9
74427;BME280;62859;53.906;27.430;2023-04-05T03:46:23;1011.2;;;3.6;62.7
74427;BME280;62859;53.906;27.430;2023-04-05T03:51:31;1011.2;;;3.6;62.9
74427;BME280;62859;53.906;27.430;2023-04-05T03:56:37;1011.2;;;3.6;63.1
74427;BME280;62859;53.906;27.430;2023-04-05T04:01:31;1011.1;;;3.6;63.2
74427;BME280;62859;53.906;27.430;2023-04-05T04:06:11;1011.2;;;3.7;63.1
74427;BME280;62859;53.906;27.430;2023-04-05T04:11:03;1011.2;;;3.7;63.2
74427;BME280;62859;53.906;27.430;2023-04-05T04:16:33;1011.1;;;3.7;63.1
74427;BME280;62859;53.906;27.430;2023-04-05T04:21:41;1011;;;3.7;62.9
74427;BME280;62859;53.906;27.430;2023-04-05T04:26:31;1011.1;;;3.7;63
74427;BME280;62859;53.906;27.430;2023-04-05T04:31:11;1011.1;;;3.7;62.8
74427;BME280;62859;53.906;27.430;2023-04-05T04:36:06;1011.1;;;3.7;62.6
74427;BME280;62859;53.906;27.430;2023-04-05T04:41:13;1011.1;;;3.8;62.9
74427;BME280;62859;53.906;27.430;2023-04-05T04:46:39;1011.1;;;3.9;63
74427;BME280;62859;53.906;27.430;2023-04-05T04:51:31;1011.1;;;3.8;62.2
74427;BME280;62859;53.906;27.430;2023-04-05T04:56:07;1011.1;;;3.8;62.2
74427;BME280;62859;53.906;27.430;2023-04-05T05:00:57;1011.2;;;3.9;62
74427;BME280;62859;53.906;27.430;2023-04-05T05:21:07;1011.2;;;3.9;61.9
74427;BME280;62859;53.906;27.430;2023-04-05T05:25:57;1011.2;;;4;61.6
74427;BME280;62859;53.906;27.430;2023-04-05T05:31:13;1011.2;;;4.1;61.4
74427;BME280;62859;53.906;27.430;2023-04-05T05:36:37;1011.2;;;4.2;61.7
74427;BME280;62859;53.906;27.430;2023-04-05T05:41:29;1011.2;;;4.3;61.1
74427;BME280;62859;53.906;27.430;2023-04-05T05:46:07;1011.2;;;4.4;60.3
74427;BME280;62859;53.906;27.430;2023-04-05T05:50:57;1011.2;;;4.4;60.2
74427;BME280;62859;53.906;27.430;2023-04-05T05:56:13;1011.2;;;4.6;60.1
74427;BME280;62859;53.906;27.430;2023-04-05T06:01:37;1011.1;;;4.5;59.9
74427;BME280;62859;53.906;27.430;2023-04-05T06:06:37;1011.1;;;4.6;59.9
74427;BME280;62859;53.906;27.430;2023-04-05T06:11:15;1011.2;;;4.7;59.7
74427;BME280;62859;53.906;27.430;2023-04-05T06:16:03;1011.3;;;4.7;58.9
74427;BME280;62859;53.906;27.430;2023-04-05T06:21:13;1011.3;;;4.7;58.6
74427;BME280;62859;53.906;27.430;2023-04-05T06:26:39;1011.3;;;4.7;58.8
74427;BME280;62859;53.906;27.430;2023-04-05T06:31:24;1011.3;;;4.9;59
74427;BME280;62859;53.906;27.430;2023-04-05T06:36:13;1011.3;;;5;58.5
74427;BME280;62859;53.906;27.430;2023-04-05T06:40:57;1011.4;;;5;58.8
74427;BME280;62859;53.906;27.430;2023-04-05T06:46:27;1011.4;;;5.1;58.9
74427;BME280;62859;53.906;27.430;2023-04-05T06:51:39;1011.4;;;5.2;58.2
74427;BME280;62859;53.906;27.430;2023-04-05T06:56:31;1011.5;;;5.3;57.4
74427;BME280;62859;53.906;27.430;2023-04-05T07:00:58;1011.4;;;5.3;56.8
74427;BME280;62859;53.906;27.430;2023-04-05T07:05:58;1011.5;;;5.4;56.6
74427;BME280;62859;53.906;27.430;2023-04-05T07:11:13;1011.4;;;5.4;56.2
74427;BME280;62859;53.906;27.430;2023-04-05T07:16:39;1011.4;;;5.4;56.8
74427;BME280;62859;53.906;27.430;2023-04-05T07:21:31;1011.5;;;5.3;56.9
74427;BME280;62859;53.906;27.430;2023-04-05T07:26:13;1011.5;;;5.3;57.2
74427;BME280;62859;53.906;27.430;2023-04-05T07:30:57;1011.5;;;5.2;57.1
74427;BME280;62859;53.906;27.430;2023-04-05T07:36:07;1011.4;;;5.1;56.9
74427;BME280;62859;53.906;27.430;2023-04-05T07:41:39;1011.5;;;5.1;57.1
74427;BME280;62859;53.906;27.430;2023-04-05T07:46:31;1011.5;;;5.1;57.5
74427;BME280;62859;53.906;27.430;2023-04-05T07:51:13;1011.5;;;5.2;57.6
74427;BME280;62859;53.906;27.430;2023-04-05T07:56:07;1011.5;;;5.3;57.7
74427;BME280;62859;53.906;27.430;2023-04-05T08:01:08;1011.5;;;5.5;57.7
74427;BME280;62859;53.906;27.430;2023-04-05T08:06:39;1011.5;;;5.5;57.3
74427;BME280;62859;53.906;27.430;2023-04-05T08:11:21;1011.6;;;5.6;57.3
74427;BME280;62859;53.906;27.430;2023-04-05T08:16:17;1011.6;;;5.6;56.8
74427;BME280;62859;53.906;27.430;2023-04-05T08:20:57;1011.6;;;5.6;56.6
74427;BME280;62859;53.906;27.430;2023-04-05T08:26:39;1011.6;;;5.7;56.5
74427;BME280;62859;53.906;27.430;2023-04-05T08:31:23;1011.6;;;5.8;56.5
74427;BME280;62859;53.906;27.430;2023-04-05T08:36:21;1011.6;;;5.8;56.4
74427;BME280;62859;53.906;27.430;2023-04-05T08:41:23;1011.7;;;5.8;56
74427;BME280;62859;53.906;27.430;2023-04-05T08:45:57;1011.7;;;5.9;56.9
74427;BME280;62859;53.906;27.430;2023-04-05T08:51:39;1011.7;;;6.1;56.2
74427;BME280;62859;53.906;27.430;2023-04-05T08:56:18;1011.7;;;6.2;55.6
74427;BME280;62859;53.906;27.430;2023-04-05T09:01:21;1011.6;;;6.2;55.1
74427;BME280;62859;53.906;27.430;2023-04-05T09:06:24;1011.6;;;6.3;55
74427;BME280;62859;53.906;27.430;2023-04-05T09:10:57;1011.7;;;6.3;54.8
74427;BME280;62859;53.906;27.430;2023-04-05T09:16:39;1011.7;;;6.3;54.7
74427;BME280;62859;53.906;27.430;2023-04-05T09:21:21;1011.7;;;6.3;55
74427;BME280;62859;53.906;27.430;2023-04-05T09:26:21;1011.8;;;6.3;55.5
74427;BME280;62859;53.906;27.430;2023-04-05T09:31:28;1011.7;;;6.5;55.1
74427;BME280;62859;53.906;27.430;2023-04-05T09:35:57;1011.7;;;6.6;54.9
74427;BME280;62859;53.906;27.430;2023-04-05T09:41:35;1011.8;;;6.6;54.8
74427;BME280;62859;53.906;27.430;2023-04-05T09:46:37;1011.7;;;6.6;54.4
74427;BME280;62859;53.906;27.430;2023-04-05T09:51:19;1011.8;;;6.6;54.9
74427;BME280;62859;53.906;27.430;2023-04-05T09:56:19;1011.8;;;6.7;54.5
74427;BME280;62859;53.906;27.430;2023-04-05T10:00:57;1011.9;;;6.7;54.9
74427;BME280;62859;53.906;27.430;2023-04-05T10:06:37;1011.8;;;6.8;54.5
74427;BME280;62859;53.906;27.430;2023-04-05T10:11:21;1011.8;;;6.8;54.4
74427;BME280;62859;53.906;27.430;2023-04-05T10:16:19;1011.8;;;6.9;54.7
74427;BME280;62859;53.906;27.430;2023-04-05T10:21:25;1011.9;;;7;54
74427;BME280;62859;53.906;27.430;2023-04-05T10:26:09;1011.9;;;7;54.2
74427;BME280;62859;53.906;27.430;2023-04-05T10:31:42;1011.9;;;6.9;54.7
74427;BME280;62859;53.906;27.430;2023-04-05T10:36:26;1011.9;;;6.9;54.9
74427;BME280;62859;53.906;27.430;2023-04-05T10:41:00;1011.9;;;7;54.8
74427;BME280;62859;53.906;27.430;2023-04-05T10:46:23;1012;;;7;54.7
74427;BME280;62859;53.906;27.430;2023-04-05T10:51:22;1011.9;;;7;55.5
74427;BME280;62859;53.906;27.430;2023-04-05T10:56:39;1011.9;;;7;55.2
74427;BME280;62859;53.906;27.430;2023-04-05T11:01:23;1011.9;;;7.1;55.2
74427;BME280;62859;53.906;27.430;2023-04-05T11:06:23;1011.9;;;7.2;54.6
74427;BME280;62859;53.906;27.430;2023-04-05T11:11:17;1011.9;;;7;54.4
74427;BME280;62859;53.906;27.430;2023-04-05T11:16:17;1011.9;;;7;54.8
74427;BME280;62859;53.906;27.430;2023-04-05T11:21:27;1011.9;;;7;54.6
74427;BME280;62859;53.906;27.430;2023-04-05T11:26:21;1011.9;;;7;55.5
74427;BME280;62859;53.906;27.430;2023-04-05T11:31:11;1011.9;;;7.1;54.8
74427;BME280;62859;53.906;27.430;2023-04-05T11:36:11;1011.9;;;7.2;54.8
74427;BME280;62859;53.906;27.430;2023-04-05T11:41:04;1011.9;;;7.2;54.9
74427;BME280;62859;53.906;27.430;2023-04-05T11:46:30;1012;;;7.1;54.5
74427;BME280;62859;53.906;27.430;2023-04-05T11:51:37;1012;;;7;55.2
74427;BME280;62859;53.906;27.430;2023-04-05T11:56:19;1012;;;7;55.1
74427;BME280;62859;53.906;27.430;2023-04-05T12:01:15;1012;;;7;55.1
74427;BME280;62859;53.906;27.430;2023-04-05T12:06:07;1011.9;;;7;55
74427;BME280;62859;53.906;27.430;2023-04-05T12:11:25;1011.9;;;7.1;55.2
74427;BME280;62859;53.906;27.430;2023-04-05T12:15:57;1011.9;;;7.2;54.9
74427;BME280;62859;53.906;27.430;2023-04-05T12:21:07;1011.9;;;7.2;54.3
74427;BME280;62859;53.906;27.430;2023-04-05T12:26:37;1011.8;;;7.4;55.2
74427;BME280;62859;53.906;27.430;2023-04-05T12:31:05;1011.9;;;7.2;54.5
74427;BME280;62859;53.906;27.430;2023-04-05T12:36:06;1011.8;;;7.2;54.4
74427;BME280;62859;53.906;27.430;2023-04-05T12:40:58;1011.8;;;7.2;54.6
74427;BME280;62859;53.906;27.430;2023-04-05T12:46:21;1011.8;;;7.3;54.9
74427;BME280;62859;53.906;27.430;2023-04-05T12:51:14;1011.8;;;7.3;54.4
74427;BME280;62859;53.906;27.430;2023-04-05T12:55:57;1011.8;;;7.3;54.6
74427;BME280;62859;53.906;27.430;2023-04-05T13:01:25;1011.8;;;7.4;54.7
74427;BME280;62859;53.906;27.430;2023-04-05T13:06:05;1011.8;;;7.4;54.4
74427;BME280;62859;53.906;27.430;2023-04-05T13:11:11;1011.8;;;7.5;54.7
74427;BME280;62859;53.906;27.430;2023-04-05T13:16:13;1011.7;;;7.5;54.6
74427;BME280;62859;53.906;27.430;2023-04-05T13:21:07;1011.7;;;7.5;54.3
74427;BME280;62859;53.906;27.430;2023-04-05T13:26:27;1011.7;;;7.5;54.5
74427;BME280;62859;53.906;27.430;2023-04-05T13:31:07;1011.8;;;7.4;54.5
74427;BME280;62859;53.906;27.430;2023-04-05T13:36:19;1011.9;;;7.3;54.6
74427;BME280;62859;53.906;27.430;2023-04-05T13:41:37;1012;;;7.2;54.8
74427;BME280;62859;53.906;27.430;2023-04-05T13:45:57;1012;;;7.1;55.3
74427;BME280;62859;53.906;27.430;2023-04-05T13:51:25;1012;;;7;55.6
74427;BME280;62859;53.906;27.430;2023-04-05T13:56:05;1012;;;6.9;56.2
74427;BME280;62859;53.906;27.430;2023-04-05T14:01:19;1011.9;;;6.8;56.4
74427;BME280;62859;53.906;27.430;2023-04-05T14:06:39;1012;;;6.8;56.4
74427;BME280;62859;53.906;27.430;2023-04-05T14:11:15;1012;;;6.7;56.2
74427;BME280;62859;53.906;27.430;2023-04-05T14:15:57;1012;;;6.5;56.9
74427;BME280;62859;53.906;27.430;2023-04-05T14:21:05;1012;;;6.4;57.3
74427;BME280;62859;53.906;27.430;2023-04-05T14:26:19;1012;;;6.4;57.3
74427;BME280;62859;53.906;27.430;2023-04-05T14:31:37;1012.1;;;6.3;57.9
74427;BME280;62859;53.906;27.430;2023-04-05T14:36:05;1012.2;;;6.3;58.1
74427;BME280;62859;53.906;27.430;2023-04-05T14:41:25;1012.2;;;6.3;58.1
74427;BME280;62859;53.906;27.430;2023-04-05T14:45:57;1012.3;;;6.3;58.5
74427;BME280;62859;53.906;27.430;2023-04-05T14:51:19;1012.3;;;6.3;58.6
74427;BME280;62859;53.906;27.430;2023-04-05T14:56:37;1012.3;;;6.1;59.1
74427;BME280;62859;53.906;27.430;2023-04-05T15:00:57;1012.4;;;6.1;59.5
74427;BME280;62859;53.906;27.430;2023-04-05T15:06:25;1012.4;;;6;59.6
74427;BME280;62859;53.906;27.430;2023-04-05T15:11:13;1012.5;;;6;60.1
74427;BME280;62859;53.906;27.430;2023-04-05T15:16:19;1012.5;;;6;60
74427;BME280;62859;53.906;27.430;2023-04-05T15:21:37;1012.5;;;6;60.3
74427;BME280;62859;53.906;27.430;2023-04-05T15:26:15;1012.5;;;6;60.2
74427;BME280;62859;53.906;27.430;2023-04-05T15:31:11;1012.5;;;6;60.2
74427;BME280;62859;53.906;27.430;2023-04-05T15:35:57;1012.5;;;6;59.9
74427;BME280;62859;53.906;27.430;2023-04-05T15:41:11;1012.5;;;5.9;60.6
74427;BME280;62859;53.906;27.430;2023-04-05T15:46:37;1012.5;;;5.9;60.8
74427;BME280;62859;53.906;27.430;2023-04-05T15:50:57;1012.5;;;5.9;60.7
74427;BME280;62859;53.906;27.430;2023-04-05T15:56:11;1012.4;;;5.8;60.9
74427;BME280;62859;53.906;27.430;2023-04-05T16:01:07;1012.4;;;5.8;61.1
74427;BME280;62859;53.906;27.430;2023-04-05T16:06:37;1012.4;;;5.8;61.4
74427;BME280;62859;53.906;27.430;2023-04-05T16:11:37;1012.3;;;5.8;61.5
74427;BME280;62859;53.906;27.430;2023-04-05T16:16:19;1012.3;;;5.8;61.5
74427;BME280;62859;53.906;27.430;2023-04-05T16:21:25;1012.2;;;5.8;61.5
74427;BME280;62859;53.906;27.430;2023-04-05T16:26:05;1012.3;;;5.8;61.4
74427;BME280;62859;53.906;27.430;2023-04-05T16:30:57;1012.4;;;5.8;61.4
74427;BME280;62859;53.906;27.430;2023-04-05T16:36:37;1012.4;;;5.8;61.6
74427;BME280;62859;53.906;27.430;2023-04-05T16:41:19;1012.4;;;5.7;61.7
74427;BME280;62859;53.906;27.430;2023-04-05T16:46:25;1012.4;;;5.8;61.9
74427;BME280;62859;53.906;27.430;2023-04-05T16:50:57;1012.4;;;5.7;62
74427;BME280;62859;53.906;27.430;2023-04-05T16:56:19;1012.4;;;5.7;62.1
74427;BME280;62859;53.906;27.430;2023-04-05T17:01:37;1012.5;;;5.6;62.2
74427;BME280;62859;53.906;27.430;2023-04-05T17:06:19;1012.5;;;5.6;62.4
74427;BME280;62859;53.906;27.430;2023-04-05T17:11:25;1012.4;;;5.5;62.8
74427;BME280;62859;53.906;27.430;2023-04-05T17:16:15;1012.4;;;5.5;62.9
74427;BME280;62859;53.906;27.430;2023-04-05T17:21:29;1012.5;;;5.5;62.8
74427;BME280;62859;53.906;27.430;2023-04-05T17:26:23;1012.5;;;5.5;63.4
74427;BME280;62859;53.906;27.430;2023-04-05T17:31:19;1012.5;;;5.5;63.6
74427;BME280;62859;53.906;27.430;2023-04-05T17:36:25;1012.5;;;5.5;63.7
74427;BME280;62859;53.906;27.430;2023-04-05T17:41:05;1012.5;;;5.5;64
74427;BME280;62859;53.906;27.430;2023-04-05T17:46:19;1012.5;;;5.4;64
74427;BME280;62859;53.906;27.430;2023-04-05T17:51:39;1012.5;;;5.4;64.2
74427;BME280;62859;53.906;27.430;2023-04-05T17:56:20;1012.6;;;5.4;64.3
74427;BME280;62859;53.906;27.430;2023-04-05T18:01:17;1012.6;;;5.4;64.3
74427;BME280;62859;53.906;27.430;2023-04-05T18:05:57;1012.6;;;5.3;64.6
74427;BME280;62859;53.906;27.430;2023-04-05T18:11:23;1012.6;;;5.3;65
74427;BME280;62859;53.906;27.430;2023-04-05T18:16:39;1012.5;;;5.4;65.3
74427;BME280;62859;53.906;27.430;2023-04-05T18:20:58;1012.5;;;5.4;65.2
74427;BME280;62859;53.906;27.430;2023-04-05T18:26:25;1012.4;;;5.4;65.1
74427;BME280;62859;53.906;27.430;2023-04-05T18:30:57;1012.4;;;5.4;65.4
74427;BME280;62859;53.906;27.430;2023-04-05T18:36:11;1012.4;;;5.4;65.3
74427;BME280;62859;53.906;27.430;2023-04-05T18:41:39;1012.4;;;5.3;65.4
74427;BME280;62859;53.906;27.430;2023-04-05T18:46:31;1012.4;;;5.3;65.7
74427;BME280;62859;53.906;27.430;2023-04-05T18:51:19;1012.4;;;5.2;66.1
74427;BME280;62859;53.906;27.430;2023-04-05T18:55:57;1012.4;;;5.2;66.2
74427;BME280;62859;53.906;27.430;2023-04-05T19:01:19;1012.4;;;5.2;66.3
74427;BME280;62859;53.906;27.430;2023-04-05T19:06:25;1012.4;;;5.3;66.6
74427;BME280;62859;53.906;27.430;2023-04-05T19:11:19;1012.4;;;5.3;66.4
74427;BME280;62859;53.906;27.430;2023-04-05T19:16:23;1012.4;;;5.3;66.6
74427;BME280;62859;53.906;27.430;2023-04-05T19:21:09;1012.4;;;5.2;66.5
74427;BME280;62859;53.906;27.430;2023-04-05T19:25:57;1012.3;;;5.2;66.7
74427;BME280;62859;53.906;27.430;2023-04-05T19:31:37;1012.3;;;5.1;67
74427;BME280;62859;53.906;27.430;2023-04-05T19:36:17;1012.2;;;5.1;67
74427;BME280;62859;53.906;27.430;2023-04-05T19:41:23;1012.3;;;5.1;67.1
74427;BME280;62859;53.906;27.430;2023-04-05T19:45:58;1012.3;;;5.2;67
74427;BME280;62859;53.906;27.430;2023-04-05T19:51:17;1012.3;;;5.2;67.2
74427;BME280;62859;53.906;27.430;2023-04-05T19:56:37;1012.3;;;5.2;67.3
74427;BME280;62859;53.906;27.430;2023-04-05T20:00:57;1012.3;;;5.3;67.2
74427;BME280;62859;53.906;27.430;2023-04-05T20:06:25;1012.3;;;5.3;67.3
74427;BME280;62859;53.906;27.430;2023-04-05T20:10:57;1012.3;;;5.3;67.2
74427;BME280;62859;53.906;27.430;2023-04-05T20:16:26;1012.3;;;5.3;67.1
74427;BME280;62859;53.906;27.430;2023-04-05T20:21:37;1012.3;;;5.3;67.1
74427;BME280;62859;53.906;27.430;2023-04-05T20:26:17;1012.4;;;5.3;67.3
74427;BME280;62859;53.906;27.430;2023-04-05T20:31:24;1012.3;;;5.3;67.3
74427;BME280;62859;53.906;27.430;2023-04-05T20:35:57;1012.3;;;5.4;67.6
74427;BME280;62859;53.906;27.430;2023-04-05T20:41:23;1012.2;;;5.5;67.4
74427;BME280;62859;53.906;27.430;2023-04-05T20:46:37;1012.3;;;5.4;67.1
74427;BME280;62859;53.906;27.430;2023-04-05T20:51:17;1012.4;;;5.5;67.3
74427;BME280;62859;53.906;27.430;2023-04-05T20:56:19;1012.3;;;5.4;67.3
74427;BME280;62859;53.906;27.430;2023-04-05T21:01:01;1011.8;;;5.4;67.2
74427;BME280;62859;53.906;27.430;2023-04-05T21:06:21;1011.7;;;5.3;67.4
74427;BME280;62859;53.906;27.430;2023-04-05T21:11:23;1011.7;;;5.3;67.5
74427;BME280;62859;53.906;27.430;2023-04-05T21:16:15;1011.7;;;5.3;67.3
74427;BME280;62859;53.906;27.430;2023-04-05T21:21:21;1011.6;;;5.3;67.9
74427;BME280;62859;53.906;27.430;2023-04-05T21:26:15;1011.7;;;5.4;68
74427;BME280;62859;53.906;27.430;2023-04-05T21:31:21;1011.7;;;5.3;67.9
74427;BME280;62859;53.906;27.430;2023-04-05T21:36:35;1011.7;;;5.3;67.8
74427;BME280;62859;53.906;27.430;2023-04-05T21:41:09;1011.7;;;5.3;68.1
74427;BME280;62859;53.906;27.430;2023-04-05T21:46:21;1011.7;;;5.2;67.9
74427;BME280;62859;53.906;27.430;2023-04-05T21:50:57;1011.7;;;5.3;68
74427;BME280;62859;53.906;27.430;2023-04-05T21:56:03;1011.6;;;5.2;68.1
74427;BME280;62859;53.906;27.430;2023-04-05T22:01:33;1011.6;;;5.3;68.5
74427;BME280;62859;53.906;27.430;2023-04-05T22:05:59;1011.5;;;5.3;68.6
74427;BME280;62859;53.906;27.430;2023-04-05T22:11:21;1011.5;;;5.3;68.4
74427;BME280;62859;53.906;27.430;2023-04-05T22:16:03;1011.5;;;5.2;68.7
74427;BME280;62859;53.906;27.430;2023-04-05T22:21:21;1011.6;;;5.1;68.8
74427;BME280;62859;53.906;27.430;2023-04-05T22:26:36;1011.6;;;5.2;68.9
74427;BME280;62859;53.906;27.430;2023-04-05T22:31:09;1011.6;;;5.3;68.8
74427;BME280;62859;53.906;27.430;2023-04-05T22:36:35;1011.5;;;5.3;68.6
74427;BME280;62859;53.906;27.430;2023-04-05T22:40:57;1011.5;;;5.3;68.6
74427;BME280;62859;53.906;27.430;2023-04-05T22:46:09;1011.5;;;5.4;68.5
74427;BME280;62859;53.906;27.430;2023-04-05T22:51:35;1011.5;;;5.5;68.7
74427;BME280;62859;53.906;27.430;2023-04-05T22:56:15;1011.5;;;5.5;68.7
74427;BME280;62859;53.906;27.430;2023-04-05T23:01:09;1011.4;;;5.5;68.7
74427;BME280;62859;53.906;27.430;2023-04-05T23:05:57;1011.3;;;5.4;68.7
74427;BME280;62859;53.906;27.430;2023-04-05T23:11:21;1011.3;;;5.4;68.8
74427;BME280;62859;53.906;27.430;2023-04-05T23:16:35;1011.2;;;5.4;69.2
74427;BME280;62859;53.906;27.430;2023-04-05T23:20:57;1011.2;;;5.4;69.4
74427;BME280;62859;53.906;27.430;2023-04-05T23:26:21;1011.1;;;5.5;69.2
74427;BME280;62859;53.906;27.430;2023-04-05T23:30:57;1011.1;;;5.5;69.1
74427;BME280;62859;53.906;27.430;2023-04-05T23:36:21;1011.1;;;5.5;69.9
74427;BME280;62859;53.906;27.430;2023-04-05T23:41:35;1011.1;;;5.5;69.6
74427;BME280;62859;53.906;27.430;2023-04-05T23:46:09;1011;;;5.5;69.9
74427;BME280;62859;53.906;27.430;2023-04-05T23:51:09;1011;;;5.5;69.8
74427;BME280;62859;53.906;27.430;2023-04-05T23:56:03;1011;;;5.5;69.8
